sensor_id;sensor_type;location;lat;lon;timestamp;P1;durP1;ratioP1;P2;durP2;ratioP2
45940;SDS011;31858;46.008;8.978;2023-09-12T00:04:19;12.05;;;10.85;;
45940;SDS011;31858;46.008;8.978;2023-09-12T00:14:20;13.65;;;10.43;;
45940;SDS011;31858;46.008;8.978;2023-09-12T00:24:23;15.75;;;11.32;;
45940;SDS011;31858;46.008;8.978;2023-09-12T00:34:25;13.40;;;12.00;;
45940;SDS011;31858;46.008;8.978;2023-09-12T00:44:28;12.80;;;11.63;;
45940;SDS011;31858;46.008;8.978;2023-09-12T00:54:29;17.70;;;10.52;;
45940;SDS011;31858;46.008;8.978;2023-09-12T01:04:33;13.52;;;11.02;;
45940;SDS011;31858;46.008;8.978;2023-09-12T01:14:36;13.80;;;10.07;;
45940;SDS011;31858;46.008;8.978;2023-09-12T01:24:49;12.18;;;10.00;;
45940;SDS011;31858;46.008;8.978;2023-09-12T01:35:04;10.57;;;9.48;;
45940;SDS011;31858;46.008;8.978;2023-09-12T01:45:09;13.20;;;10.45;;
45940;SDS011;31858;46.008;8.978;2023-09-12T01:55:13;12.60;;;10.48;;
45940;SDS011;31858;46.008;8.978;2023-09-12T02:05:16;16.35;;;10.35;;
45940;SDS011;31858;46.008;8.978;2023-09-12T02:15:21;11.73;;;10.25;;
45940;SDS011;31858;46.008;8.978;2023-09-12T02:25:23;11.20;;;10.20;;
45940;SDS011;31858;46.008;8.978;2023-09-12T02:35:27;12.98;;;11.05;;
45940;SDS011;31858;46.008;8.978;2023-09-12T02:45:28;11.30;;;10.18;;
45940;SDS011;31858;46.008;8.978;2023-09-12T02:55:31;10.77;;;9.68;;
45940;SDS011;31858;46.008;8.978;2023-09-12T03:05:33;13.32;;;9.55;;
45940;SDS011;31858;46.008;8.978;2023-09-12T03:15:39;11.45;;;9.93;;
45940;SDS011;31858;46.008;8.978;2023-09-12T03:25:41;11.55;;;10.18;;
45940;SDS011;31858;46.008;8.978;2023-09-12T03:35:44;14.80;;;11.10;;
45940;SDS011;31858;46.008;8.978;2023-09-12T03:45:45;9.77;;;8.77;;
45940;SDS011;31858;46.008;8.978;2023-09-12T03:55:48;9.68;;;8.65;;
45940;SDS011;31858;46.008;8.978;2023-09-12T04:05:50;10.80;;;9.65;;
45940;SDS011;31858;46.008;8.978;2023-09-12T04:15:53;10.00;;;8.98;;
45940;SDS011;31858;46.008;8.978;2023-09-12T04:25:55;10.82;;;9.70;;
45940;SDS011;31858;46.008;8.978;2023-09-12T04:36:00;9.35;;;8.45;;
45940;SDS011;31858;46.008;8.978;2023-09-12T04:46:02;12.95;;;9.65;;
45940;SDS011;31858;46.008;8.978;2023-09-12T04:56:05;10.23;;;8.98;;
45940;SDS011;31858;46.008;8.978;2023-09-12T05:06:10;11.52;;;10.32;;
45940;SDS011;31858;46.008;8.978;2023-09-12T05:16:13;12.55;;;9.95;;
45940;SDS011;31858;46.008;8.978;2023-09-12T05:26:14;11.20;;;10.10;;
45940;SDS011;31858;46.008;8.978;2023-09-12T05:36:17;14.35;;;10.15;;
45940;SDS011;31858;46.008;8.978;2023-09-12T05:46:19;10.52;;;9.48;;
45940;SDS011;31858;46.008;8.978;2023-09-12T05:56:22;10.60;;;9.35;;
45940;SDS011;31858;46.008;8.978;2023-09-12T06:06:23;11.73;;;8.52;;
45940;SDS011;31858;46.008;8.978;2023-09-12T06:16:26;9.98;;;8.98;;
45940;SDS011;31858;46.008;8.978;2023-09-12T06:26:28;14.38;;;10.13;;
45940;SDS011;31858;46.008;8.978;2023-09-12T06:36:31;9.63;;;8.63;;
45940;SDS011;31858;46.008;8.978;2023-09-12T06:46:33;11.05;;;9.82;;
45940;SDS011;31858;46.008;8.978;2023-09-12T06:56:37;12.13;;;9.52;;
45940;SDS011;31858;46.008;8.978;2023-09-12T07:06:42;14.40;;;9.82;;
45940;SDS011;31858;46.008;8.978;2023-09-12T07:16:45;10.23;;;9.30;;
45940;SDS011;31858;46.008;8.978;2023-09-12T07:26:46;11.93;;;10.27;;
45940;SDS011;31858;46.008;8.978;2023-09-12T07:36:49;13.80;;;10.90;;
45940;SDS011;31858;46.008;8.978;2023-09-12T07:46:51;12.10;;;10.88;;
45940;SDS011;31858;46.008;8.978;2023-09-12T07:56:54;11.95;;;10.68;;
45940;SDS011;31858;46.008;8.978;2023-09-12T08:06:56;12.30;;;10.98;;
45940;SDS011;31858;46.008;8.978;2023-09-12T08:16:59;14.32;;;11.82;;
45940;SDS011;31858;46.008;8.978;2023-09-12T08:27:01;12.55;;;10.57;;
45940;SDS011;31858;46.008;8.978;2023-09-12T08:37:04;15.35;;;12.98;;
45940;SDS011;31858;46.008;8.978;2023-09-12T08:47:05;13.18;;;11.70;;
45940;SDS011;31858;46.008;8.978;2023-09-12T08:57:10;12.10;;;10.98;;
45940;SDS011;31858;46.008;8.978;2023-09-12T09:07:14;15.05;;;10.85;;
45940;SDS011;31858;46.008;8.978;2023-09-12T09:17:17;14.82;;;10.73;;
45940;SDS011;31858;46.008;8.978;2023-09-12T09:27:32;12.63;;;10.95;;
45940;SDS011;31858;46.008;8.978;2023-09-12T09:37:36;13.25;;;11.45;;
45940;SDS011;31858;46.008;8.978;2023-09-12T09:47:39;12.48;;;9.88;;
45940;SDS011;31858;46.008;8.978;2023-09-12T09:57:42;11.45;;;10.18;;
45940;SDS011;31858;46.008;8.978;2023-09-12T10:07:44;10.60;;;9.60;;
45940;SDS011;31858;46.008;8.978;2023-09-12T10:17:55;12.85;;;9.65;;
45940;SDS011;31858;46.008;8.978;2023-09-12T10:27:58;12.18;;;10.93;;
45940;SDS011;31858;46.008;8.978;2023-09-12T10:38:02;11.15;;;8.90;;
45940;SDS011;31858;46.008;8.978;2023-09-12T10:48:04;15.82;;;10.35;;
45940;SDS011;31858;46.008;8.978;2023-09-12T10:58:08;14.48;;;11.98;;
45940;SDS011;31858;46.008;8.978;2023-09-12T11:08:10;15.68;;;11.50;;
45940;SDS011;31858;46.008;8.978;2023-09-12T11:18:13;14.90;;;11.60;;
45940;SDS011;31858;46.008;8.978;2023-09-12T11:28:15;17.45;;;11.55;;
45940;SDS011;31858;46.008;8.978;2023-09-12T11:38:27;15.00;;;11.20;;
45940;SDS011;31858;46.008;8.978;2023-09-12T11:48:29;12.55;;;11.15;;
45940;SDS011;31858;46.008;8.978;2023-09-12T11:58:32;14.80;;;12.90;;
45940;SDS011;31858;46.008;8.978;2023-09-12T12:08:36;16.77;;;14.20;;
45940;SDS011;31858;46.008;8.978;2023-09-12T12:18:39;19.08;;;13.10;;
45940;SDS011;31858;46.008;8.978;2023-09-12T12:28:41;16.27;;;13.02;;
45940;SDS011;31858;46.008;8.978;2023-09-12T12:38:45;16.45;;;14.73;;
45940;SDS011;31858;46.008;8.978;2023-09-12T12:48:48;15.13;;;13.25;;
45940;SDS011;31858;46.008;8.978;2023-09-12T12:58:51;16.23;;;12.10;;
45940;SDS011;31858;46.008;8.978;2023-09-12T13:08:57;15.77;;;12.70;;
45940;SDS011;31858;46.008;8.978;2023-09-12T13:19:03;12.77;;;10.90;;
45940;SDS011;31858;46.008;8.978;2023-09-12T13:29:05;14.70;;;10.77;;
45940;SDS011;31858;46.008;8.978;2023-09-12T13:39:08;12.40;;;10.57;;
45940;SDS011;31858;46.008;8.978;2023-09-12T13:49:10;11.60;;;10.40;;
45940;SDS011;31858;46.008;8.978;2023-09-12T13:59:13;12.15;;;9.88;;
45940;SDS011;31858;46.008;8.978;2023-09-12T14:09:16;11.05;;;10.05;;
45940;SDS011;31858;46.008;8.978;2023-09-12T14:19:18;12.90;;;9.77;;
45940;SDS011;31858;46.008;8.978;2023-09-12T14:29:20;11.13;;;9.88;;
45940;SDS011;31858;46.008;8.978;2023-09-12T14:39:24;10.43;;;9.43;;
45940;SDS011;31858;46.008;8.978;2023-09-12T14:49:26;10.50;;;9.40;;
45940;SDS011;31858;46.008;8.978;2023-09-12T14:59:29;10.70;;;9.45;;
45940;SDS011;31858;46.008;8.978;2023-09-12T15:09:30;17.17;;;12.05;;
45940;SDS011;31858;46.008;8.978;2023-09-12T15:19:33;12.52;;;9.35;;
45940;SDS011;31858;46.008;8.978;2023-09-12T15:29:35;12.65;;;10.02;;
45940;SDS011;31858;46.008;8.978;2023-09-12T15:39:38;16.35;;;10.82;;
45940;SDS011;31858;46.008;8.978;2023-09-12T15:49:39;11.02;;;9.18;;
45940;SDS011;31858;46.008;8.978;2023-09-12T15:59:42;10.90;;;9.65;;
45940;SDS011;31858;46.008;8.978;2023-09-12T16:09:44;11.80;;;9.63;;
45940;SDS011;31858;46.008;8.978;2023-09-12T16:19:48;14.07;;;10.73;;
45940;SDS011;31858;46.008;8.978;2023-09-12T16:29:51;12.07;;;9.10;;
45940;SDS011;31858;46.008;8.978;2023-09-12T16:39:53;9.05;;;8.15;;
45940;SDS011;31858;46.008;8.978;2023-09-12T16:49:55;13.15;;;9.57;;
45940;SDS011;31858;46.008;8.978;2023-09-12T16:59:59;12.13;;;9.52;;
45940;SDS011;31858;46.008;8.978;2023-09-12T17:10:00;15.75;;;10.65;;
45940;SDS011;31858;46.008;8.978;2023-09-12T17:20:04;13.35;;;12.02;;
45940;SDS011;31858;46.008;8.978;2023-09-12T17:30:07;12.63;;;11.32;;
45940;SDS011;31858;46.008;8.978;2023-09-12T17:40:11;11.82;;;10.65;;
45940;SDS011;31858;46.008;8.978;2023-09-12T17:50:13;16.08;;;10.57;;
45940;SDS011;31858;46.008;8.978;2023-09-12T18:00:16;13.13;;;9.88;;
45940;SDS011;31858;46.008;8.978;2023-09-12T18:10:18;11.02;;;9.90;;
45940;SDS011;31858;46.008;8.978;2023-09-12T18:20:21;15.73;;;11.70;;
45940;SDS011;31858;46.008;8.978;2023-09-12T18:30:23;11.35;;;10.35;;
45940;SDS011;31858;46.008;8.978;2023-09-12T18:40:26;16.40;;;10.15;;
45940;SDS011;31858;46.008;8.978;2023-09-12T18:50:28;16.13;;;10.07;;
45940;SDS011;31858;46.008;8.978;2023-09-12T19:00:31;13.68;;;10.50;;
45940;SDS011;31858;46.008;8.978;2023-09-12T19:10:33;11.45;;;10.25;;
45940;SDS011;31858;46.008;8.978;2023-09-12T19:20:36;13.65;;;11.50;;
45940;SDS011;31858;46.008;8.978;2023-09-12T19:30:39;11.68;;;10.38;;
45940;SDS011;31858;46.008;8.978;2023-09-12T19:40:42;11.07;;;9.95;;
45940;SDS011;31858;46.008;8.978;2023-09-12T19:50:45;18.90;;;11.70;;
45940;SDS011;31858;46.008;8.978;2023-09-12T20:00:48;13.65;;;10.50;;
45940;SDS011;31858;46.008;8.978;2023-09-12T20:10:50;14.40;;;10.07;;
45940;SDS011;31858;46.008;8.978;2023-09-12T20:20:53;14.40;;;11.15;;
45940;SDS011;31858;46.008;8.978;2023-09-12T20:30:56;13.65;;;12.25;;
45940;SDS011;31858;46.008;8.978;2023-09-12T20:41:00;11.80;;;10.70;;
45940;SDS011;31858;46.008;8.978;2023-09-12T20:51:02;18.55;;;11.55;;
45940;SDS011;31858;46.008;8.978;2023-09-12T21:01:10;13.25;;;11.85;;
45940;SDS011;31858;46.008;8.978;2023-09-12T21:11:11;15.82;;;11.80;;
45940;SDS011;31858;46.008;8.978;2023-09-12T21:21:14;13.40;;;12.00;;
45940;SDS011;31858;46.008;8.978;2023-09-12T21:31:16;14.20;;;10.93;;
45940;SDS011;31858;46.008;8.978;2023-09-12T21:41:19;15.77;;;11.15;;
45940;SDS011;31858;46.008;8.978;2023-09-12T21:51:20;13.57;;;12.18;;
45940;SDS011;31858;46.008;8.978;2023-09-12T22:01:23;14.82;;;11.57;;
45940;SDS011;31858;46.008;8.978;2023-09-12T22:11:25;13.45;;;11.30;;
45940;SDS011;31858;46.008;8.978;2023-09-12T22:21:28;13.02;;;10.98;;
45940;SDS011;31858;46.008;8.978;2023-09-12T22:31:30;12.65;;;11.23;;
45940;SDS011;31858;46.008;8.978;2023-09-12T22:41:33;15.90;;;11.88;;
45940;SDS011;31858;46.008;8.978;2023-09-12T22:51:35;18.90;;;12.30;;
45940;SDS011;31858;46.008;8.978;2023-09-12T23:01:38;19.00;;;12.27;;
45940;SDS011;31858;46.008;8.978;2023-09-12T23:11:40;14.55;;;12.95;;
45940;SDS011;31858;46.008;8.978;2023-09-12T23:21:42;13.68;;;12.38;;
45940;SDS011;31858;46.008;8.978;2023-09-12T23:31:44;13.35;;;11.88;;
45940;SDS011;31858;46.008;8.978;2023-09-12T23:41:47;12.07;;;10.77;;
45940;SDS011;31858;46.008;8.978;2023-09-12T23:51:48;11.88;;;10.77;;
